Time;durP1;ratioP1;P1;durP2;ratioP2;P2;SDS_P1;SDS_P2;PMS_P1;PMS_P2;Temp;Humidity;BMP_temperature;BMP_pressure;BME280_temperature;BME280_humidity;BME280_pressure;Samples;Min_cycle;Max_cycle;Signal;HPM_P1;HPM_P2
2021/11/01 00:01:07;;;;;;;28.37;22.77;;;10.20;99.90;;;10.93;100.00;98727.59;5093147;28;20206;-66
2021/11/01 00:03:35;;;;;;;26.97;22.00;;;10.20;99.90;;;10.91;100.00;98721.66;5093364;28;20188;-66
2021/11/01 00:06:05;;;;;;;29.53;22.43;;;10.20;99.90;;;11.08;100.00;98722.31;5093362;28;20287;-67
2021/11/01 00:08:37;;;;;;;28.30;22.53;;;10.20;99.90;;;10.85;100.00;98717.31;5092731;28;20342;-66
2021/11/01 00:11:05;;;;;;;28.10;21.87;;;10.20;99.90;;;10.73;100.00;98711.25;5092999;28;20631;-66
2021/11/01 00:13:33;;;;;;;27.20;23.40;;;10.10;99.90;;;10.78;100.00;98704.06;5093268;28;20202;-65
2021/11/01 00:16:01;;;;;;;28.43;22.93;;;10.10;99.90;;;10.79;100.00;98702.19;5092995;28;20543;-67
2021/11/01 00:18:29;;;;;;;28.13;23.80;;;10.00;99.90;;;10.75;100.00;98695.66;5092973;28;20294;-65
2021/11/01 00:20:57;;;;;;;27.00;22.53;;;10.00;99.90;;;10.71;100.00;98698.06;5093213;28;20306;-66
2021/11/01 00:23:25;;;;;;;27.00;22.63;;;10.00;99.90;;;10.83;100.00;98704.09;5093074;28;20624;-66
2021/11/01 00:25:55;;;;;;;29.63;23.83;;;10.00;99.90;;;10.88;100.00;98703.31;5092972;28;20233;-65
2021/11/01 00:28:23;;;;;;;28.87;24.00;;;10.00;99.90;;;10.91;100.00;98692.00;5092054;28;20733;-66
2021/11/01 00:30:52;;;;;;;27.50;22.57;;;10.00;99.90;;;10.72;100.00;98705.06;5093024;28;20207;-65
2021/11/01 00:33:20;;;;;;;29.47;23.43;;;10.00;99.90;;;10.75;100.00;98698.38;5092740;28;20235;-66
2021/11/01 00:35:49;;;;;;;28.43;22.50;;;10.00;99.90;;;10.76;100.00;98695.41;5092850;28;20327;-66
2021/11/01 00:38:18;;;;;;;29.37;22.60;;;10.00;99.90;;;10.72;100.00;98698.88;5092772;28;20206;-67
2021/11/01 00:40:46;;;;;;;28.83;23.50;;;10.00;99.90;;;10.70;100.00;98687.53;5092589;28;20691;-66
2021/11/01 00:43:15;;;;;;;28.43;23.73;;;10.00;99.90;;;10.63;100.00;98681.56;5093245;28;20203;-66
2021/11/01 00:45:44;;;;;;;28.20;22.40;;;9.90;99.90;;;10.53;100.00;98690.38;5092739;28;20725;-66
2021/11/01 00:48:12;;;;;;;32.83;25.43;;;9.90;99.90;;;10.94;100.00;98689.63;5092825;28;20224;-65
2021/11/01 00:50:41;;;;;;;28.87;23.53;;;9.90;99.90;;;10.92;100.00;98683.69;5093299;28;20577;-60
2021/11/01 00:53:09;;;;;;;27.77;23.27;;;10.00;99.90;;;10.71;100.00;98686.47;5092691;28;20200;-59
2021/11/01 00:55:48;;;;;;;29.67;23.53;;;10.00;99.90;;;11.02;100.00;98683.78;5092598;28;20203;-60
2021/11/01 00:58:19;;;;;;;29.30;23.13;;;10.00;99.90;;;11.01;100.00;98684.81;5092568;28;20275;-60
2021/11/01 01:00:48;;;;;;;29.97;23.67;;;10.10;99.90;;;11.06;100.00;98684.03;5092671;28;20341;-61
2021/11/01 01:03:17;;;;;;;29.53;23.23;;;10.10;99.90;;;11.17;100.00;98680.34;5092414;28;20216;-59
2021/11/01 01:05:47;;;;;;;32.27;25.43;;;10.20;99.90;;;11.14;100.00;98678.19;5092320;28;20769;-61
2021/11/01 01:08:18;;;;;;;28.03;23.73;;;10.20;99.90;;;10.92;100.00;98678.31;5091925;28;20259;-60
2021/11/01 01:10:48;;;;;;;29.93;24.57;;;10.20;99.90;;;10.76;100.00;98679.25;5092496;28;20547;-60
2021/11/01 01:13:19;;;;;;;31.70;24.57;;;10.10;99.90;;;10.85;100.00;98672.31;5092591;28;20216;-60
2021/11/01 01:15:55;;;;;;;29.03;23.20;;;10.10;99.90;;;10.88;100.00;98668.28;5092534;28;20185;-61
2021/11/01 01:18:27;;;;;;;28.90;24.30;;;10.10;99.90;;;10.90;100.00;98664.28;5092598;28;20184;-61
2021/11/01 01:20:56;;;;;;;27.40;23.03;;;10.10;99.90;;;10.65;100.00;98663.25;5092597;28;20215;-60
2021/11/01 01:23:24;;;;;;;32.10;24.37;;;10.00;99.90;;;10.73;100.00;98660.09;5092443;28;20200;-60
2021/11/01 01:25:57;;;;;;;28.93;23.50;;;10.00;99.90;;;10.71;100.00;98656.84;5092107;28;20212;-60
2021/11/01 01:28:28;;;;;;;30.60;24.90;;;10.00;99.90;;;10.79;100.00;98651.00;5092453;28;20208;-60
2021/11/01 01:30:57;;;;;;;30.13;24.20;;;10.00;99.90;;;10.63;100.00;98655.44;5092202;28;20208;-60
2021/11/01 01:33:25;;;;;;;29.83;24.17;;;10.00;99.90;;;10.68;100.00;98652.78;5092097;28;20196;-61
2021/11/01 01:35:53;;;;;;;29.83;24.57;;;9.90;99.90;;;10.92;100.00;98637.91;5092507;28;20228;-61
2021/11/01 01:38:22;;;;;;;31.13;24.67;;;10.00;99.90;;;10.89;100.00;98648.38;5092238;28;20242;-59
2021/11/01 01:40:50;;;;;;;30.17;23.67;;;10.00;99.90;;;10.95;100.00;98655.41;5095825;28;20231;-60
2021/11/01 01:43:18;;;;;;;31.57;24.50;;;10.10;99.90;;;11.20;100.00;98647.50;5096105;28;20204;-59
2021/11/01 01:45:48;;;;;;;28.97;23.83;;;10.20;99.90;;;10.88;100.00;98639.47;5095726;28;20671;-61
2021/11/01 01:48:18;;;;;;;30.90;24.47;;;10.20;99.90;;;10.85;100.00;98637.31;5095970;28;20592;-60
2021/11/01 01:50:47;;;;;;;30.20;23.77;;;10.10;99.90;;;10.86;100.00;98635.41;5095706;28;20297;-59
2021/11/01 01:53:15;;;;;;;29.40;22.93;;;10.10;99.90;;;10.98;100.00;98630.63;5095661;28;20238;-61
2021/11/01 01:55:43;;;;;;;29.70;23.83;;;10.10;99.90;;;10.82;100.00;98634.31;5095603;28;20295;-61
2021/11/01 01:58:11;;;;;;;30.93;24.63;;;10.10;99.90;;;10.94;100.00;98627.66;5095478;28;20298;-60
2021/11/01 02:00:52;;;;;;;27.23;22.67;;;10.10;99.90;;;10.83;100.00;98635.94;5095388;28;20287;-60
2021/11/01 02:03:22;;;;;;;30.83;24.77;;;10.10;99.90;;;10.76;100.00;98632.63;5095504;28;20266;-60
2021/11/01 02:06:01;;;;;;;27.33;23.10;;;10.10;99.90;;;10.75;100.00;98636.41;5095324;28;20684;-61
2021/11/01 02:08:33;;;;;;;29.60;23.43;;;10.00;99.90;;;10.75;100.00;98636.41;5094935;28;20270;-60
2021/11/01 02:11:21;;;;;;;29.27;23.90;;;10.00;99.90;;;10.81;100.00;98633.50;5095350;28;20283;-61
2021/11/01 02:13:55;;;;;;;28.50;24.17;;;10.00;99.90;;;10.85;100.00;98639.19;5095456;28;20198;-61
2021/11/01 02:16:28;;;;;;;28.20;23.23;;;10.10;99.90;;;11.04;100.00;98635.78;5095288;28;20184;-60
2021/11/01 02:19:02;;;;;;;28.57;23.13;;;10.20;99.90;;;11.24;100.00;98632.44;5095203;28;20185;-60
2021/11/01 02:21:46;;;;;;;28.87;23.83;;;10.30;99.90;;;11.35;100.00;98628.69;5095063;28;20635;-60
2021/11/01 02:24:23;;;;;;;27.83;22.77;;;10.40;99.90;;;11.25;100.00;98619.78;5095159;28;20582;-59
2021/11/01 02:26:53;;;;;;;29.43;23.23;;;10.40;99.90;;;11.19;100.00;98616.22;5095134;28;20607;-60
2021/11/01 02:29:26;;;;;;;31.20;24.17;;;10.40;99.90;;;11.17;100.00;98606.78;5095208;28;20307;-60
2021/11/01 02:31:55;;;;;;;29.43;23.50;;;10.40;99.90;;;11.25;100.00;98601.69;5094886;28;20220;-60
2021/11/01 02:34:24;;;;;;;28.03;22.93;;;10.40;99.90;;;11.06;100.00;98620.19;5095065;28;20303;-58
2021/11/01 02:36:52;;;;;;;28.50;23.50;;;10.40;99.90;;;11.17;100.00;98610.28;5094945;28;20287;-60
2021/11/01 02:39:20;;;;;;;30.43;23.93;;;10.30;99.90;;;11.04;100.00;98610.75;5094640;28;20192;-61
2021/11/01 02:41:48;;;;;;;28.20;22.67;;;10.30;99.90;;;11.11;100.00;98611.34;5094912;28;20620;-61
2021/11/01 02:44:21;;;;;;;29.80;23.93;;;10.30;99.90;;;11.01;100.00;98603.16;5094686;28;20302;-59
2021/11/01 02:46:49;;;;;;;26.00;21.73;;;10.30;99.90;;;10.79;100.00;98602.50;5094839;28;20275;-61
2021/11/01 02:49:17;;;;;;;28.47;22.43;;;10.20;99.90;;;10.80;100.00;98596.88;5094576;28;20216;-60
2021/11/01 02:51:45;;;;;;;27.67;22.90;;;10.10;99.90;;;10.95;100.00;98598.84;5093799;28;20199;-60
2021/11/01 02:54:13;;;;;;;29.10;24.00;;;10.20;99.90;;;10.87;100.00;98602.81;5094322;28;20298;-60
2021/11/01 02:56:43;;;;;;;30.80;23.57;;;10.20;99.90;;;10.82;100.00;98599.28;5094235;28;20647;-60
2021/11/01 02:59:11;;;;;;;27.57;22.50;;;10.10;99.90;;;11.18;100.00;98609.19;5094173;28;20709;-60
2021/11/01 03:01:40;;;;;;;28.97;23.20;;;10.20;99.90;;;11.04;100.00;98602.66;5094365;28;20200;-60
2021/11/01 03:04:08;;;;;;;29.37;23.23;;;10.30;99.90;;;11.16;100.00;98607.84;5094728;28;20303;-60
2021/11/01 03:06:36;;;;;;;26.70;22.53;;;10.30;99.90;;;11.17;100.00;98612.16;5094643;28;20291;-59
2021/11/01 03:09:05;;;;;;;28.73;23.23;;;10.30;99.90;;;11.55;100.00;98606.44;5093730;28;20575;-60
2021/11/01 03:11:33;;;;;;;27.13;23.33;;;10.40;99.90;;;11.37;100.00;98599.59;5094170;28;20293;-60
2021/11/01 03:14:01;;;;;;;26.57;21.87;;;10.50;99.90;;;11.21;100.00;98599.78;5094267;28;20204;-59
2021/11/01 03:16:31;;;;;;;29.10;23.53;;;10.40;99.90;;;11.19;100.00;98607.31;5094115;28;20275;-61
2021/11/01 03:19:10;;;;;;;27.07;23.03;;;10.40;99.90;;;11.25;100.00;98603.59;5093967;28;20207;-60
2021/11/01 03:21:44;;;;;;;28.33;23.43;;;10.40;99.90;;;11.31;100.00;98597.97;5076081;28;20286;-60
2021/11/01 03:24:16;;;;;;;25.90;21.90;;;10.40;99.90;;;11.10;100.00;98604.31;5094017;28;20233;-60
2021/11/01 03:26:46;;;;;;;28.80;23.23;;;10.40;99.90;;;11.19;100.00;98600.06;5093951;28;20275;-60
2021/11/01 03:29:19;;;;;;;25.97;22.13;;;10.40;99.90;;;11.14;100.00;98599.22;5094000;28;20303;-60
2021/11/01 03:31:49;;;;;;;27.80;23.17;;;10.40;99.90;;;11.38;100.00;98609.28;5093963;28;20185;-61
2021/11/01 03:34:22;;;;;;;27.10;22.80;;;10.40;99.90;;;11.21;100.00;98615.97;5093820;28;20202;-60
2021/11/01 03:36:52;;;;;;;28.30;23.03;;;10.40;99.90;;;11.17;100.00;98617.53;5093894;28;20184;-60
2021/11/01 03:39:23;;;;;;;27.80;23.10;;;10.40;99.90;;;11.15;100.00;98628.59;5093832;28;20181;-60
2021/11/01 03:41:52;;;;;;;28.27;22.77;;;10.40;99.90;;;11.15;100.00;98623.19;5093672;28;20202;-60
2021/11/01 03:44:26;;;;;;;27.90;23.03;;;10.40;99.90;;;11.12;100.00;98626.44;5093804;28;20224;-61
2021/11/01 03:46:55;;;;;;;27.87;22.63;;;10.40;99.90;;;11.26;100.00;98630.28;5093735;28;20272;-60
2021/11/01 03:49:27;;;;;;;26.40;21.87;;;10.40;99.90;;;11.42;100.00;98629.28;5093749;28;20269;-60
2021/11/01 03:52:08;;;;;;;28.50;22.40;;;10.50;99.90;;;11.35;100.00;98634.09;5093590;28;20226;-60
2021/11/01 03:54:39;;;;;;;28.07;22.97;;;10.50;99.90;;;11.13;100.00;98638.03;5093526;28;20242;-60
2021/11/01 03:57:09;;;;;;;28.13;23.30;;;10.50;99.90;;;11.48;100.00;98640.91;5093358;28;20235;-59
2021/11/01 03:59:39;;;;;;;26.83;21.80;;;10.50;99.90;;;11.44;100.00;98635.22;5093422;28;20215;-60
2021/11/01 04:02:13;;;;;;;27.67;23.07;;;10.60;99.90;;;11.38;100.00;98649.75;5092859;28;20189;-60
2021/11/01 04:04:46;;;;;;;27.40;22.53;;;10.60;99.90;;;11.52;100.00;98653.59;5093224;28;20186;-60
2021/11/01 04:07:14;;;;;;;29.03;22.10;;;10.60;99.90;;;11.47;100.00;98653.56;5093005;28;20347;-60
2021/11/01 04:09:43;;;;;;;28.33;22.30;;;10.60;99.90;;;11.52;100.00;98661.69;5093298;28;20228;-60
2021/11/01 04:12:13;;;;;;;28.67;23.10;;;10.60;99.90;;;11.26;100.00;98662.63;5093144;28;20525;-60
2021/11/01 04:14:44;;;;;;;27.80;21.93;;;10.60;99.90;;;11.12;100.00;98666.84;5092921;28;20239;-61
2021/11/01 04:17:21;;;;;;;28.03;22.93;;;10.50;99.90;;;11.25;100.00;98663.69;5093224;28;20184;-60
2021/11/01 04:20:03;;;;;;;28.93;22.30;;;10.50;99.90;;;11.43;100.00;98667.84;5092985;28;20507;-60
2021/11/01 04:22:33;;;;;;;30.17;24.07;;;10.50;99.90;;;11.60;100.00;98679.25;5093042;28;20230;-61
2021/11/01 04:25:01;;;;;;;30.60;23.07;;;10.60;99.90;;;11.41;100.00;98670.81;5093047;28;20246;-60
2021/11/01 04:27:29;;;;;;;30.37;23.30;;;10.60;99.90;;;11.64;100.00;98675.81;5092783;28;20722;-61
2021/11/01 04:29:58;;;;;;;27.83;22.53;;;10.60;99.90;;;11.36;100.00;98676.16;5092943;28;20216;-59
2021/11/01 04:32:33;;;;;;;27.67;21.90;;;10.60;99.90;;;11.68;100.00;98676.91;5092675;28;20636;-60
2021/11/01 04:35:10;;;;;;;29.27;23.03;;;10.60;99.90;;;11.73;100.00;98676.09;5092722;28;20706;-61
2021/11/01 04:37:40;;;;;;;26.07;21.87;;;10.70;99.90;;;11.65;100.00;98674.72;5092988;28;20180;-60
2021/11/01 04:40:26;;;;;;;27.07;21.87;;;10.80;99.90;;;11.50;100.00;98680.00;5092679;28;20270;-60
2021/11/01 04:54:05;;;;;;;26.07;21.90;;;10.90;99.90;;;11.87;100.00;98683.44;5092725;28;20276;-60
2021/11/01 04:56:35;;;;;;;25.63;21.80;;;10.90;99.90;;;11.91;100.00;98683.72;5092650;28;20613;-61
2021/11/01 04:59:04;;;;;;;27.77;21.17;;;11.00;99.90;;;11.78;100.00;98695.84;5092484;28;20720;-60
2021/11/01 05:01:35;;;;;;;25.27;21.13;;;11.00;99.90;;;11.90;100.00;98692.91;5092199;28;20227;-59
2021/11/01 05:04:06;;;;;;;26.47;22.40;;;11.00;99.90;;;11.82;100.00;98699.63;5092503;28;20227;-59
2021/11/01 05:06:41;;;;;;;28.83;22.80;;;11.00;99.90;;;12.01;100.00;98697.25;5092708;28;20180;-59
2021/11/01 05:09:12;;;;;;;29.10;22.70;;;11.00;99.90;;;12.24;100.00;98697.59;5092061;28;20273;-60
2021/11/01 05:11:48;;;;;;;26.73;21.70;;;11.10;99.90;;;12.05;100.00;98696.47;5092536;28;20223;-60
2021/11/01 05:14:17;;;;;;;25.10;21.80;;;11.10;99.90;;;11.93;100.00;98701.28;5093839;28;20212;-60
2021/11/01 05:16:54;;;;;;;26.17;21.40;;;11.10;99.90;;;12.02;100.00;98705.09;5096270;28;20238;-60
2021/11/01 05:19:26;;;;;;;30.80;22.93;;;11.10;99.90;;;11.92;100.00;98704.25;5096561;28;20187;-60
2021/11/01 05:22:03;;;;;;;27.67;22.17;;;11.10;99.90;;;11.94;100.00;98716.41;5096429;28;20271;-61
2021/11/01 05:24:35;;;;;;;28.37;22.47;;;11.10;99.90;;;12.17;100.00;98717.84;5096263;28;20179;-61
2021/11/01 05:27:21;;;;;;;30.07;22.40;;;11.10;99.90;;;12.21;100.00;98714.34;5095799;28;20186;-60
2021/11/01 05:29:51;;;;;;;27.53;22.23;;;11.20;99.90;;;12.30;100.00;98720.03;5096211;28;20298;-60
2021/11/01 05:32:23;;;;;;;27.50;22.40;;;11.20;99.90;;;12.12;100.00;98715.94;5095910;28;20295;-61
2021/11/01 05:34:51;;;;;;;27.07;21.97;;;11.20;99.90;;;12.10;100.00;98717.28;5095935;28;20185;-60
2021/11/01 05:37:20;;;;;;;29.83;23.23;;;11.20;99.90;;;12.06;100.00;98722.38;5095821;28;20291;-60
2021/11/01 05:39:49;;;;;;;25.17;20.57;;;11.20;99.90;;;12.07;100.00;98734.00;5096006;28;20203;-59
2021/11/01 05:42:18;;;;;;;28.67;22.13;;;11.20;99.90;;;12.32;100.00;98733.25;5095882;28;20204;-59
2021/11/01 05:44:46;;;;;;;26.50;20.97;;;11.30;99.90;;;12.24;100.00;98737.31;5095920;28;20258;-60
2021/11/01 05:47:14;;;;;;;25.60;21.40;;;11.30;99.90;;;12.21;100.00;98749.44;5095892;28;20261;-60
2021/11/01 05:49:42;;;;;;;27.60;21.80;;;11.30;99.90;;;12.14;100.00;98750.78;5095647;28;20252;-60
2021/11/01 05:52:17;;;;;;;25.70;20.33;;;11.30;99.90;;;12.12;100.00;98748.34;5095316;28;20203;-62
2021/11/01 05:54:46;;;;;;;25.30;21.60;;;11.30;99.90;;;12.09;100.00;98739.97;5095696;28;20220;-60
2021/11/01 05:57:19;;;;;;;26.90;22.00;;;11.20;99.90;;;12.13;100.00;98749.13;5095125;28;20299;-60
2021/11/01 06:02:45;;;;;;;26.80;21.90;;;11.30;99.90;;;12.22;100.00;98742.16;5075193;28;20310;-60
2021/11/01 06:05:19;;;;;;;28.63;21.47;;;11.30;99.90;;;12.20;100.00;98747.81;5075185;28;20199;-61
2021/11/01 06:07:58;;;;;;;26.90;21.50;;;11.30;99.90;;;12.28;100.00;98747.31;5074570;28;20320;-61
2021/11/01 06:10:51;;;;;;;27.27;22.20;;;11.40;99.90;;;12.63;100.00;98748.47;5074630;28;20211;-61
2021/11/01 06:13:28;;;;;;;27.63;22.07;;;11.40;99.90;;;12.73;100.00;98754.72;5088588;28;20252;-61
2021/11/01 06:15:57;;;;;;;27.13;20.93;;;11.60;99.90;;;12.43;100.00;98749.22;5095069;28;20230;-60
2021/11/01 06:18:35;;;;;;;27.80;21.80;;;11.50;99.90;;;12.57;100.00;98746.81;5095161;28;20204;-61
2021/11/01 06:21:04;;;;;;;73.33;24.97;;;11.50;99.90;;;12.32;100.00;98758.38;5095228;28;20211;-61
2021/11/01 06:23:33;;;;;;;32.40;22.03;;;11.50;99.90;;;12.47;100.00;98763.00;5094956;28;20238;-61
2021/11/01 06:26:04;;;;;;;24.87;21.83;;;11.50;99.90;;;12.33;100.00;98770.00;5093648;28;20271;-61
2021/11/01 06:28:33;;;;;;;29.17;21.97;;;11.50;99.90;;;12.37;100.00;98769.22;5094692;28;20184;-61
2021/11/01 06:31:05;;;;;;;25.53;21.40;;;11.50;99.90;;;12.38;100.00;98776.22;5094446;28;20683;-61
2021/11/01 06:33:52;;;;;;;37.43;22.63;;;11.50;99.90;;;12.49;100.00;98783.28;5094955;28;20180;-61
2021/11/01 06:39:25;;;;;;;27.47;21.67;;;11.60;99.90;;;12.56;100.00;98785.75;5060735;28;20204;-61
2021/11/01 06:42:20;;;;;;;25.67;20.90;;;11.60;99.90;;;12.71;100.00;98783.91;5094837;28;20208;-60
2021/11/01 06:45:27;;;;;;;25.40;20.53;;;11.70;99.90;;;12.81;100.00;98799.31;5094949;28;20196;-61
2021/11/01 06:51:01;;;;;;;23.63;19.43;;;11.80;99.90;;;12.63;100.00;98811.44;5094621;28;20204;-61
2021/11/01 06:53:52;;;;;;;25.30;20.93;;;11.70;99.90;;;12.53;100.00;98816.00;5094512;28;20181;-60
2021/11/01 07:16:17;;;;;;;25.53;19.97;;;12.00;99.90;;;13.28;100.00;98849.44;5094200;28;20190;-61
2021/11/01 07:18:51;;;;;;;25.97;20.70;;;12.20;99.90;;;13.16;100.00;98857.00;5094349;28;20180;-61
2021/11/01 07:21:35;;;;;;;38.70;21.40;;;12.20;99.90;;;13.40;100.00;98862.69;5094118;28;20183;-62
2021/11/01 08:22:18;;;;;;;18.95;15.13;;;12.70;99.90;;;13.68;100.00;98948.78;5092879;28;20180;-61
2021/11/01 08:25:11;;;;;;;17.40;14.47;;;12.70;99.90;;;13.77;100.00;98941.72;5093032;28;20226;-61
2021/11/01 08:47:47;;;;;;;12.67;10.27;;;13.10;99.90;;;14.23;100.00;98947.94;5035244;28;20201;-60
2021/11/01 08:50:38;;;;;;;12.88;9.98;;;13.10;99.90;;;14.28;100.00;98945.25;5095454;28;20659;-61
2021/11/01 09:01:42;;;;;;;7.68;5.55;;;13.40;99.90;;;14.62;100.00;98952.50;5096703;28;20615;-61
2021/11/01 09:04:17;;;;;;;6.22;4.13;;;13.40;99.90;;;14.70;98.21;98943.00;5096782;28;20581;-61
2021/11/01 09:07:07;;;;;;;4.63;3.33;;;13.40;99.90;;;14.86;97.31;98944.56;5096330;28;20215;-62
2021/11/01 09:10:00;;;;;;;5.10;2.60;;;13.50;99.90;;;15.08;93.83;98936.06;5096514;28;20184;-62
2021/11/01 09:20:59;;;;;;;2.17;1.85;;;13.90;99.90;;;15.35;89.73;98933.75;5096920;28;20616;-62
2021/11/01 09:26:20;;;;;;;3.67;1.38;;;13.80;99.90;;;15.10;91.19;98926.56;5095765;28;20286;-61
2021/11/01 09:28:56;;;;;;;3.90;1.70;;;13.80;99.90;;;15.05;92.78;98928.50;5096366;28;20270;-61
2021/11/01 09:37:03;;;;;;;3.05;1.58;;;13.70;99.90;;;15.07;90.64;98954.22;5095885;28;20227;-62
2021/11/01 09:39:45;;;;;;;3.30;1.30;;;13.70;99.90;;;14.89;93.06;98962.19;5096047;28;20191;-60
2021/11/01 09:42:14;;;;;;;2.65;1.25;;;13.70;99.90;;;14.87;94.42;98953.50;5095436;28;20191;-61
2021/11/01 09:44:48;;;;;;;2.90;1.75;;;13.70;99.90;;;14.84;97.00;98954.88;5095511;28;20564;-62
2021/11/01 09:47:18;;;;;;;3.72;2.03;;;13.70;99.90;;;14.77;98.74;98948.94;5095672;28;20185;-61
2021/11/01 09:49:47;;;;;;;3.17;1.67;;;13.60;99.90;;;14.70;100.00;98953.03;5095876;28;20181;-62
2021/11/01 09:52:15;;;;;;;2.95;1.75;;;13.60;99.90;;;14.39;100.00;98958.50;5095319;28;20913;-61
2021/11/01 09:54:45;;;;;;;2.15;1.75;;;13.40;99.90;;;14.24;100.00;98965.84;5095620;28;20196;-60
2021/11/01 09:57:20;;;;;;;2.70;2.03;;;13.30;99.90;;;14.10;100.00;98968.28;5095156;28;20295;-61
2021/11/01 09:59:51;;;;;;;2.72;2.30;;;13.20;99.90;;;14.13;100.00;98975.03;5095659;28;20344;-61
2021/11/01 10:02:22;;;;;;;3.63;2.38;;;13.10;99.90;;;14.06;100.00;98982.63;5095604;28;20188;-61
2021/11/01 10:04:54;;;;;;;3.83;2.20;;;13.10;99.90;;;13.93;100.00;98984.00;5095581;28;20188;-61
2021/11/01 10:07:26;;;;;;;3.80;2.55;;;13.00;99.90;;;13.81;100.00;98983.44;5095192;28;20227;-61
2021/11/01 10:09:57;;;;;;;5.35;2.15;;;12.90;99.90;;;13.71;100.00;98985.31;5095354;28;20188;-62
2021/11/01 10:12:32;;;;;;;5.07;2.70;;;12.80;99.90;;;13.67;100.00;98981.50;5094932;28;20296;-60
2021/11/01 10:17:57;;;;;;;3.67;2.22;;;12.80;99.90;;;14.09;100.00;98963.13;5094332;28;20192;-61
2021/11/01 10:20:27;;;;;;;3.85;2.40;;;12.80;99.90;;;14.09;100.00;98955.81;5095239;28;20285;-61
2021/11/01 10:22:55;;;;;;;4.43;2.10;;;12.90;99.90;;;14.15;100.00;98962.88;5094951;28;20196;-62
2021/11/01 10:25:25;;;;;;;4.13;2.50;;;13.00;99.90;;;14.30;100.00;98954.75;5095278;28;20610;-62
2021/11/01 10:27:57;;;;;;;3.47;2.08;;;13.00;99.90;;;14.59;100.00;98961.16;5094961;28;20278;-61
2021/11/01 10:30:30;;;;;;;3.85;2.08;;;13.10;99.90;;;14.87;100.00;98956.22;5095219;28;20188;-61
2021/11/01 10:33:03;;;;;;;5.28;2.50;;;13.30;99.90;;;14.66;100.00;98950.84;5095181;28;20244;-60
2021/11/01 10:35:36;;;;;;;4.35;2.60;;;13.40;99.90;;;14.72;100.00;98948.94;5095096;28;20180;-61
2021/11/01 10:38:18;;;;;;;4.50;2.25;;;13.40;99.90;;;14.91;100.00;98946.44;5094787;28;20180;-62
2021/11/01 10:40:57;;;;;;;3.90;2.80;;;13.50;99.90;;;14.99;100.00;98943.97;5094533;28;20629;-62
2021/11/01 11:11:58;;;;;;;14.02;10.20;;;13.40;99.90;;;14.60;100.00;98934.88;5093449;28;20211;-63
2021/11/01 11:14:31;;;;;;;13.02;10.13;;;13.40;99.90;;;14.41;100.00;98940.09;5094673;28;20208;-61
2021/11/01 11:17:11;;;;;;;14.60;10.90;;;13.40;99.90;;;14.42;100.00;98938.19;5094386;28;20219;-61
2021/11/01 11:19:58;;;;;;;14.40;11.77;;;13.40;99.90;;;14.45;100.00;98935.75;5094299;28;20184;-61
2021/11/01 11:25:39;;;;;;;16.05;12.13;;;13.20;99.90;;;14.25;100.00;98934.94;5094184;28;20188;-60
2021/11/01 11:31:28;;;;;;;18.38;14.95;;;13.10;99.90;;;14.15;100.00;98932.25;5094052;28;20199;-62
2021/11/01 11:37:11;;;;;;;19.33;13.82;;;13.20;99.90;;;14.05;100.00;98933.09;5093708;28;20279;-63
2021/11/01 11:48:11;;;;;;;18.65;14.02;;;13.20;99.90;;;14.10;100.00;98943.09;5093312;28;20191;-62
2021/11/01 11:50:40;;;;;;;16.40;12.50;;;13.20;99.90;;;14.10;100.00;98935.78;5093419;28;20580;-63
2021/11/01 11:53:15;;;;;;;14.32;12.60;;;13.20;99.90;;;14.01;100.00;98937.41;5093257;28;20303;-60
2021/11/01 11:55:45;;;;;;;15.45;12.48;;;13.10;99.90;;;13.98;100.00;98942.56;5093334;28;20698;-62
2021/11/01 11:58:15;;;;;;;14.02;10.93;;;13.10;99.90;;;13.83;100.00;98940.66;5093489;28;20220;-61
2021/11/01 12:00:44;;;;;;;13.07;10.65;;;13.00;99.90;;;13.96;100.00;98942.81;5093330;28;20188;-63
2021/11/01 12:03:15;;;;;;;11.80;8.93;;;13.00;99.90;;;13.93;100.00;98937.13;5093355;28;20198;-62
2021/11/01 12:05:49;;;;;;;10.50;8.45;;;13.00;99.90;;;13.96;100.00;98937.41;5092967;28;20536;-62
2021/11/01 12:08:24;;;;;;;9.82;8.65;;;13.00;99.90;;;14.06;100.00;98929.28;5092909;28;20324;-61
2021/11/01 12:14:14;;;;;;;9.98;8.75;;;13.10;99.90;;;14.30;100.00;98935.78;5092847;28;20746;-62
2021/11/01 12:19:44;;;;;;;7.70;6.90;;;13.10;99.90;;;14.06;100.00;98931.97;5033622;28;20195;-61
2021/11/01 12:22:27;;;;;;;8.13;6.07;;;13.10;99.90;;;13.90;100.00;98943.88;5092633;28;20204;-61
2021/11/01 12:25:03;;;;;;;9.40;6.23;;;13.00;99.90;;;13.98;100.00;98932.53;5092326;28;20239;-61
2021/11/01 12:27:36;;;;;;;8.77;7.40;;;13.00;99.90;;;14.00;100.00;98924.16;5092902;28;20270;-61
2021/11/01 12:30:10;;;;;;;7.40;5.43;;;13.00;99.90;;;13.94;100.00;98922.50;5092715;28;20188;-61
2021/11/01 12:32:40;;;;;;;6.22;5.50;;;13.00;99.90;;;14.04;100.00;98927.91;5092890;28;20298;-60
2021/11/01 12:35:16;;;;;;;4.83;4.33;;;13.00;99.90;;;14.17;100.00;98920.03;5092915;28;20249;-61
2021/11/01 12:37:53;;;;;;;7.32;5.20;;;13.10;99.90;;;14.12;100.00;98920.06;5092730;28;20206;-61
2021/11/01 12:40:28;;;;;;;5.07;4.57;;;13.10;99.90;;;14.24;100.00;98923.28;5092679;28;20505;-61
2021/11/01 12:43:12;;;;;;;4.50;4.03;;;13.20;99.90;;;14.27;100.00;98920.06;5092706;28;20274;-62
2021/11/01 12:46:10;;;;;;;6.03;3.90;;;13.20;99.90;;;14.38;100.00;98910.84;5092901;28;20271;-61
2021/11/01 12:49:11;;;;;;;4.47;4.07;;;13.20;99.90;;;14.39;100.00;98912.44;5092761;28;20214;-62
2021/11/01 12:57:28;;;;;;;5.47;3.80;;;13.20;99.90;;;14.29;100.00;98900.84;5055866;28;20295;-61
2021/11/01 12:59:57;;;;;;;4.68;3.80;;;13.10;99.90;;;14.28;100.00;98907.34;5092467;28;20191;-61
2021/11/01 13:02:34;;;;;;;5.45;3.38;;;13.10;99.90;;;14.12;100.00;98920.06;5092316;28;20290;-63
2021/11/01 13:05:07;;;;;;;4.45;3.30;;;13.10;99.90;;;14.11;100.00;98914.91;5092303;28;20201;-61
2021/11/01 13:07:48;;;;;;;5.20;3.58;;;13.10;99.90;;;13.98;100.00;98913.59;5092010;28;20673;-61
2021/11/01 13:10:25;;;;;;;6.55;3.33;;;13.00;99.90;;;14.24;100.00;98911.66;5092574;28;20184;-62
2021/11/01 13:19:07;;;;;;;5.20;3.10;;;13.10;99.90;;;14.02;100.00;98913.84;5092942;28;20190;-61
2021/11/01 13:21:38;;;;;;;3.50;3.20;;;13.00;99.90;;;13.98;100.00;98915.47;5092329;28;20620;-62
2021/11/01 13:24:10;;;;;;;3.65;3.20;;;13.00;99.90;;;14.13;100.00;98910.84;5092183;28;20187;-61
2021/11/01 13:27:05;;;;;;;6.20;3.55;;;13.00;99.90;;;14.12;100.00;98913.84;5092219;28;20283;-61
2021/11/01 13:38:07;;;;;;;4.32;2.80;;;12.90;99.90;;;13.85;100.00;98913.31;5095866;28;20223;-61
2021/11/01 13:40:39;;;;;;;4.32;3.10;;;12.80;99.90;;;14.09;100.00;98912.47;5096029;28;20303;-62
2021/11/01 13:43:07;;;;;;;4.40;2.45;;;12.70;99.90;;;13.79;100.00;98909.78;5095580;28;20660;-61
2021/11/01 13:45:36;;;;;;;2.43;2.23;;;12.70;99.90;;;13.82;100.00;98911.94;5095698;28;20656;-60
2021/11/01 13:48:30;;;;;;;5.63;2.80;;;12.70;99.90;;;13.84;100.00;98912.50;5095517;28;20207;-61
2021/11/01 13:51:08;;;;;;;4.90;2.90;;;12.60;99.90;;;13.53;100.00;98908.16;5095630;28;20640;-61
2021/11/01 13:53:56;;;;;;;3.50;2.83;;;12.60;99.90;;;13.48;100.00;98910.06;5095764;28;20247;-62
2021/11/01 13:56:28;;;;;;;5.87;2.90;;;12.50;99.90;;;13.58;100.00;98918.97;5095782;28;20559;-61
2021/11/01 13:58:58;;;;;;;3.87;2.57;;;12.50;99.90;;;13.48;100.00;98918.19;5095806;28;20191;-61
2021/11/01 14:01:58;;;;;;;2.90;2.60;;;12.40;99.90;;;13.40;100.00;98917.63;5095653;28;20287;-62
2021/11/01 14:12:52;;;;;;;2.83;2.43;;;12.20;99.90;;;13.23;100.00;98916.22;5095072;28;20616;-62
2021/11/01 14:27:08;;;;;;;4.27;3.00;;;12.10;99.90;;;12.83;100.00;98914.19;5095118;28;20285;-62